Terminal Aerodrome Forecast
Issued by NWS Mt. Holly, NJ

Home | Current Version | Previous Version | Text Only | Print | Product List | Glossary On
Versions: 1 2 3 4 5 6 7 8 9 10 11 12 13 14 15 16
239
FTUS41 KPHI 210521
TAFTTN
TAF
KTTN 210521Z 2106/2206 04007KT P6SM SKC
     FM211400 10006KT P6SM BKN250
     FM211700 17006KT P6SM OVC250=

USA.gov is the U.S. government's official web portal to all federal, state and local government web resources and services.